Weather at Dare County Regional Airport

Public forecast

Using degrees Fahrenheit for public forecast. Weather courtesy of forecast.io.

Current aviation weather report (METAR) for Dare County Regional Airport

Retrieved 2020/10/01 12:35 UTC (0 seconds ago):

KMQI 011235Z AUTO 24006KT 10SM CLR 18/13 A3003 RMK AO2 T01800130

Closest aviation forecast (TAF) to Dare County Regional Airport

Closest forecast is Elizabeth City Regional Airport & Coast Guard Air Station, 31.0 nm (57.4 km) NW. Retrieved 2020/10/01 12:30 UTC (0 seconds ago):

TAF TAF KECG 011124Z 0112/0212 23008KT P6SM SKC FM012100 19007KT P6SM SCT050 FM020900 32008KT P6SM BKN025